Time;durP1;ratioP1;P1;durP2;ratioP2;P2;SDS_P1;SDS_P2;PMS_P1;PMS_P2;Temp;Humidity;BMP_temperature;BMP_pressure;BME280_temperature;BME280_humidity;BME280_pressure;Samples;Min_cycle;Max_cycle;Signal;HPM_P1;HPM_P2
2021/07/17 00:01:22;;;;;;;19.25;13.60;;;;;;;16.54;100.00;94308.13;5075318;28;20205;-78
2021/07/17 00:03:49;;;;;;;22.58;14.02;;;;;;;16.59;100.00;94308.25;5075260;28;20198;-78
2021/07/17 00:06:16;;;;;;;24.85;13.85;;;;;;;16.62;100.00;94314.88;5075147;28;20202;-78
2021/07/17 00:08:42;;;;;;;25.85;14.68;;;;;;;16.61;100.00;94302.75;5075468;28;20613;-78
2021/07/17 00:11:09;;;;;;;22.30;13.68;;;;;;;16.55;100.00;94307.06;5075278;28;20207;-77
2021/07/17 00:13:35;;;;;;;25.58;15.55;;;;;;;16.56;100.00;94310.53;5075053;28;20614;-77
2021/07/17 00:16:02;;;;;;;25.85;14.90;;;;;;;16.56;100.00;94300.78;5074987;28;20752;-79
2021/07/17 00:18:28;;;;;;;23.88;14.48;;;;;;;16.54;100.00;94310.75;5074974;28;20227;-79
2021/07/17 00:20:56;;;;;;;25.95;15.60;;;;;;;16.52;100.00;94299.63;5074286;28;20249;-78
2021/07/17 00:23:22;;;;;;;31.67;18.58;;;;;;;16.46;100.00;94303.94;5074362;28;20195;-76
2021/07/17 00:25:53;;;;;;;38.08;21.52;;;;;;;16.42;100.00;94309.88;5074800;28;20238;-79
2021/07/17 00:28:19;;;;;;;39.33;22.73;;;;;;;16.30;100.00;94309.03;5074854;28;20202;-80
2021/07/17 00:30:46;;;;;;;448.55;30.08;;;;;;;16.14;100.00;94307.81;5074747;28;20252;-78
2021/07/17 00:33:12;;;;;;;278.77;29.88;;;;;;;15.90;100.00;94303.25;5074374;28;20202;-78
2021/07/17 00:35:39;;;;;;;139.63;29.55;;;;;;;15.81;100.00;94304.53;5074824;28;20252;-78
2021/07/17 00:38:07;;;;;;;287.63;34.03;;;;;;;15.78;100.00;94310.25;5074423;28;20202;-80
2021/07/17 00:40:34;;;;;;;114.20;30.50;;;;;;;15.80;100.00;94308.19;5074703;28;20199;-78
2021/07/17 00:43:00;;;;;;;302.70;33.50;;;;;;;15.71;100.00;94309.50;5074432;28;20202;-78
2021/07/17 00:45:27;;;;;;;145.73;30.70;;;;;;;15.63;100.00;94313.19;5074445;28;20328;-79
2021/07/17 00:47:53;;;;;;;166.57;32.55;;;;;;;15.61;100.00;94306.56;5074263;28;20199;-78
2021/07/17 00:50:21;;;;;;;246.40;33.88;;;;;;;15.52;100.00;94301.59;5074552;28;20199;-81
2021/07/17 00:52:48;;;;;;;84.10;30.52;;;;;;;15.54;100.00;94306.63;5074518;28;20240;-80
2021/07/17 00:55:16;;;;;;;77.07;30.13;;;;;;;15.51;100.00;94304.44;5074167;28;20203;-78
2021/07/17 00:57:47;;;;;;;80.22;30.63;;;;;;;15.43;100.00;94308.13;5074120;28;20273;-78
2021/07/17 01:00:16;;;;;;;72.38;29.65;;;;;;;15.45;100.00;94302.66;5073948;28;20566;-77
2021/07/17 01:02:46;;;;;;;70.00;27.58;;;;;;;15.49;100.00;94299.38;5073933;28;20202;-78
2021/07/17 01:05:14;;;;;;;73.38;29.40;;;;;;;15.41;100.00;94299.66;5074231;28;20203;-79
2021/07/17 01:07:40;;;;;;;69.53;29.27;;;;;;;15.42;100.00;94298.66;5074098;28;20232;-78
2021/07/17 01:10:09;;;;;;;77.75;29.52;;;;;;;15.42;100.00;94311.81;5073974;28;20681;-77
2021/07/17 01:12:37;;;;;;;72.00;28.23;;;;;;;15.37;100.00;94309.03;5073905;28;20203;-76
2021/07/17 01:15:06;;;;;;;73.88;28.45;;;;;;;15.38;100.00;94300.09;5073687;28;20195;-78
2021/07/17 01:17:33;;;;;;;78.32;28.63;;;;;;;15.33;100.00;94306.00;5073919;28;20199;-78
2021/07/17 01:19:59;;;;;;;96.63;31.58;;;;;;;15.36;100.00;94312.66;5073743;28;20236;-78
2021/07/17 01:22:28;;;;;;;88.70;31.20;;;;;;;15.31;100.00;94309.88;5073998;28;20199;-78
2021/07/17 01:24:54;;;;;;;77.80;28.92;;;;;;;15.35;100.00;94311.03;5073519;28;20222;-77
2021/07/17 01:27:20;;;;;;;85.00;30.52;;;;;;;15.36;100.00;94318.72;5072973;28;20203;-78
2021/07/17 01:29:48;;;;;;;79.72;30.50;;;;;;;15.37;100.00;94319.56;5073466;28;20213;-77
2021/07/17 01:32:19;;;;;;;105.72;34.60;;;;;;;15.34;100.00;94322.59;5073787;28;20199;-78
2021/07/17 01:34:45;;;;;;;91.03;32.60;;;;;;;15.32;100.00;94322.00;5073583;28;20325;-76
2021/07/17 01:37:12;;;;;;;87.80;32.28;;;;;;;15.33;100.00;94323.63;5073527;28;20202;-78
2021/07/17 01:39:40;;;;;;;94.20;30.85;;;;;;;15.28;100.00;94326.88;5073489;28;20280;-80
2021/07/17 01:42:08;;;;;;;89.70;31.00;;;;;;;15.31;100.00;94325.66;5073311;28;20198;-77
2021/07/17 01:44:41;;;;;;;87.70;32.28;;;;;;;15.30;100.00;94327.47;5073232;28;20206;-78
2021/07/17 01:47:08;;;;;;;102.57;33.05;;;;;;;15.30;100.00;94329.31;5073527;28;20199;-77
2021/07/17 01:49:34;;;;;;;94.13;32.92;;;;;;;15.30;100.00;94324.03;5073186;28;20202;-79
2021/07/17 01:52:00;;;;;;;78.97;31.70;;;;;;;15.26;100.00;94317.63;5073434;28;20206;-78
2021/07/17 01:54:31;;;;;;;87.60;32.13;;;;;;;15.23;100.00;94324.09;5073162;28;20203;-77
2021/07/17 01:56:59;;;;;;;87.88;31.20;;;;;;;15.24;100.00;94324.91;5073581;28;20203;-78
2021/07/17 01:59:26;;;;;;;73.75;28.67;;;;;;;15.23;100.00;94329.38;5073024;28;20701;-77
2021/07/17 02:01:52;;;;;;;94.65;37.13;;;;;;;15.24;100.00;94322.28;5071825;28;20835;-77
2021/07/17 02:04:18;;;;;;;77.30;30.17;;;;;;;15.23;100.00;94315.41;5072974;28;20199;-80
2021/07/17 02:06:45;;;;;;;73.03;28.73;;;;;;;15.24;100.00;94319.63;5073055;28;20198;-79
2021/07/17 02:09:11;;;;;;;70.20;28.48;;;;;;;15.29;100.00;94311.94;5072828;28;20665;-79
2021/07/17 02:11:38;;;;;;;85.67;33.07;;;;;;;15.27;100.00;94311.31;5072753;28;20978;-79
2021/07/17 02:14:06;;;;;;;71.38;28.08;;;;;;;15.19;100.00;94312.41;5072767;28;20198;-79
2021/07/17 02:16:33;;;;;;;78.45;28.92;;;;;;;15.16;100.00;94308.38;5071801;28;20652;-78
2021/07/17 02:19:11;;;;;;;65.47;26.75;;;;;;;15.18;100.00;94306.34;5072943;28;20230;-78
2021/07/17 02:21:38;;;;;;;64.45;26.08;;;;;;;15.17;100.00;94314.44;5072867;28;20240;-78
2021/07/17 02:24:05;;;;;;;50.60;21.73;;;;;;;15.18;100.00;94314.22;5073051;28;20191;-78
2021/07/17 02:26:32;;;;;;;50.05;23.25;;;;;;;15.16;100.00;94313.63;5072779;28;20234;-77
2021/07/17 02:28:58;;;;;;;48.97;22.17;;;;;;;15.20;100.00;94305.31;5072878;28;20203;-78
2021/07/17 02:31:26;;;;;;;61.08;23.75;;;;;;;15.16;100.00;94303.13;5072948;28;20198;-80
2021/07/17 02:33:53;;;;;;;47.13;20.08;;;;;;;15.17;100.00;94302.09;5072697;28;20604;-78
2021/07/17 02:36:19;;;;;;;51.72;20.27;;;;;;;15.16;100.00;94297.84;5072611;28;20233;-77
2021/07/17 02:38:45;;;;;;;43.90;18.55;;;;;;;15.14;100.00;94304.38;5074634;28;20202;-79
2021/07/17 02:41:12;;;;;;;40.10;18.05;;;;;;;15.14;100.00;94307.00;5077085;28;20206;-78
2021/07/17 02:43:38;;;;;;;42.58;18.17;;;;;;;15.12;100.00;94306.38;5076802;28;20707;-78
2021/07/17 02:46:05;;;;;;;50.83;19.05;;;;;;;15.13;100.00;94303.53;5076881;28;20202;-79
2021/07/17 02:48:32;;;;;;;44.25;19.27;;;;;;;15.10;100.00;94303.16;5076669;28;20206;-79
2021/07/17 02:50:59;;;;;;;44.65;18.58;;;;;;;15.09;100.00;94305.00;5077060;28;20229;-80
2021/07/17 02:53:25;;;;;;;45.53;19.27;;;;;;;15.09;100.00;94302.38;5076667;28;20202;-80
2021/07/17 02:55:52;;;;;;;54.75;20.85;;;;;;;15.12;100.00;94291.44;5076413;28;20441;-77
2021/07/17 02:58:18;;;;;;;49.33;20.58;;;;;;;15.11;100.00;94297.69;5076608;28;20207;-77
2021/07/17 03:00:47;;;;;;;50.15;20.83;;;;;;;15.13;100.00;94298.28;5076346;28;20624;-80
2021/07/17 03:03:14;;;;;;;44.40;19.40;;;;;;;15.17;100.00;94288.97;5076468;28;20707;-79
2021/07/17 03:05:41;;;;;;;64.70;24.13;;;;;;;15.20;100.00;94286.91;5076524;28;20202;-79
2021/07/17 03:08:09;;;;;;;69.88;24.58;;;;;;;15.13;100.00;94282.50;5076426;28;20198;-77
2021/07/17 03:10:35;;;;;;;94.88;24.63;;;;;;;15.12;100.00;94286.16;5076377;28;20260;-80
2021/07/17 03:13:01;;;;;;;102.75;25.08;;;;;;;15.01;100.00;94289.50;5076181;28;20232;-81
2021/07/17 03:15:28;;;;;;;101.05;26.65;;;;;;;15.00;100.00;94282.63;5076337;28;20206;-80
2021/07/17 03:17:54;;;;;;;83.13;25.77;;;;;;;15.01;100.00;94288.69;5075953;28;20255;-81
2021/07/17 03:20:21;;;;;;;197.85;28.35;;;;;;;14.95;100.00;94285.09;5076131;28;20226;-80
2021/07/17 03:22:49;;;;;;;602.67;38.53;;;;;;;14.92;100.00;94290.78;5076187;28;20599;-80
2021/07/17 03:25:15;;;;;;;327.63;32.65;;;;;;;14.92;100.00;94290.78;5076032;28;20249;-80
2021/07/17 03:27:42;;;;;;;118.00;28.77;;;;;;;14.94;100.00;94299.28;5075805;28;20231;-81
2021/07/17 03:30:09;;;;;;;439.67;35.25;;;;;;;14.96;100.00;94294.59;5075956;28;20203;-80
2021/07/17 03:32:36;;;;;;;74.68;26.42;;;;;;;14.93;100.00;94290.56;5075775;28;20210;-80
2021/07/17 03:35:03;;;;;;;94.65;27.02;;;;;;;14.93;100.00;94303.72;5075964;28;20240;-80
2021/07/17 03:37:30;;;;;;;158.48;28.67;;;;;;;14.94;100.00;94302.69;5075912;28;20226;-78
2021/07/17 03:39:58;;;;;;;69.75;25.02;;;;;;;14.97;100.00;94299.66;5075664;28;20624;-79
2021/07/17 03:42:24;;;;;;;77.10;24.50;;;;;;;14.96;100.00;94297.22;5075798;28;20207;-80
2021/07/17 03:44:50;;;;;;;58.90;21.67;;;;;;;14.97;100.00;94302.28;5075613;28;20198;-80
2021/07/17 03:47:17;;;;;;;57.78;19.85;;;;;;;14.95;100.00;94296.44;5075879;28;20205;-79
2021/07/17 03:49:43;;;;;;;53.25;20.13;;;;;;;14.99;100.00;94292.34;5075193;28;20209;-79
2021/07/17 03:52:10;;;;;;;62.40;21.35;;;;;;;14.99;100.00;94296.81;5075645;28;20248;-79
2021/07/17 03:54:36;;;;;;;59.38;19.05;;;;;;;14.98;100.00;94293.34;5075479;28;20199;-78
2021/07/17 03:57:05;;;;;;;56.42;20.42;;;;;;;15.01;100.00;94289.50;5075448;28;20608;-79
2021/07/17 03:59:31;;;;;;;54.55;19.42;;;;;;;15.04;100.00;94299.59;5075244;28;20226;-78
2021/07/17 04:01:58;;;;;;;50.95;18.67;;;;;;;15.07;100.00;94291.28;5075594;28;20205;-80
2021/07/17 04:04:24;;;;;;;57.00;19.15;;;;;;;15.08;100.00;94300.75;5075324;28;20198;-80
2021/07/17 04:06:51;;;;;;;42.60;16.80;;;;;;;15.03;100.00;94303.22;5075305;28;20195;-81
2021/07/17 04:09:17;;;;;;;44.33;16.52;;;;;;;15.01;100.00;94305.28;5074730;28;20248;-80
2021/07/17 04:11:43;;;;;;;50.80;18.35;;;;;;;14.96;100.00;94310.38;5075188;28;20195;-82
2021/07/17 04:14:12;;;;;;;42.47;15.55;;;;;;;14.97;100.00;94309.34;5075059;28;20210;-80
2021/07/17 04:16:39;;;;;;;41.95;15.88;;;;;;;14.94;100.00;94315.03;5075109;28;20653;-78
2021/07/17 04:19:05;;;;;;;47.83;17.48;;;;;;;14.95;100.00;94306.94;5074813;28;20678;-78
2021/07/17 04:21:32;;;;;;;37.83;15.27;;;;;;;14.99;100.00;94302.84;5075004;28;20301;-78
2021/07/17 04:23:58;;;;;;;36.60;15.13;;;;;;;15.02;100.00;94306.91;5074849;28;20191;-78
2021/07/17 04:26:25;;;;;;;43.55;15.77;;;;;;;14.90;100.00;94314.66;5074890;28;20277;-77
2021/07/17 04:28:51;;;;;;;36.53;15.27;;;;;;;14.88;100.00;94315.91;5075164;28;20217;-78
2021/07/17 04:31:19;;;;;;;37.42;15.55;;;;;;;14.81;100.00;94321.19;5074740;28;20708;-78
2021/07/17 04:33:45;;;;;;;42.50;15.05;;;;;;;14.82;100.00;94322.00;5074789;28;20600;-78
2021/07/17 04:36:12;;;;;;;38.83;15.00;;;;;;;14.83;100.00;94321.78;5074734;28;20198;-79
2021/07/17 04:38:39;;;;;;;38.83;15.80;;;;;;;14.79;100.00;94324.03;5074818;28;20203;-81
2021/07/17 04:41:06;;;;;;;44.70;16.65;;;;;;;14.82;100.00;94327.25;5074491;28;20231;-80
2021/07/17 04:43:32;;;;;;;44.05;15.45;;;;;;;14.84;100.00;94330.47;5074411;28;20252;-80
2021/07/17 04:45:59;;;;;;;44.95;16.77;;;;;;;14.80;100.00;94325.66;5074566;28;20203;-79
2021/07/17 04:48:26;;;;;;;42.30;14.65;;;;;;;14.82;100.00;94332.50;5074323;28;20687;-77
2021/07/17 04:50:53;;;;;;;41.60;14.63;;;;;;;14.82;100.00;94328.03;5074411;28;20347;-79
2021/07/17 04:53:20;;;;;;;45.42;16.42;;;;;;;14.87;100.00;94335.31;5074313;28;20206;-80
2021/07/17 04:55:46;;;;;;;42.05;15.77;;;;;;;14.91;100.00;94329.41;5074154;28;20203;-81
2021/07/17 04:58:13;;;;;;;44.17;17.13;;;;;;;14.97;100.00;94325.09;5074434;28;20233;-80
2021/07/17 05:00:39;;;;;;;45.55;16.90;;;;;;;14.92;100.00;94330.22;5073204;28;20284;-82
2021/07/17 05:03:06;;;;;;;46.22;17.95;;;;;;;14.94;100.00;94330.81;5074319;28;20260;-79
2021/07/17 05:05:34;;;;;;;39.40;15.73;;;;;;;14.91;100.00;94336.50;5074148;28;20399;-80
2021/07/17 05:08:00;;;;;;;46.92;16.92;;;;;;;14.91;100.00;94332.03;5074130;28;20571;-78
2021/07/17 05:10:27;;;;;;;46.75;19.02;;;;;;;14.80;100.00;94325.66;5073129;28;20978;-80
2021/07/17 05:12:54;;;;;;;41.95;16.77;;;;;;;14.84;100.00;94330.47;5074004;28;20225;-79
2021/07/17 05:15:21;;;;;;;38.13;15.73;;;;;;;14.92;100.00;94330.22;5074098;28;20202;-79
2021/07/17 05:17:47;;;;;;;39.67;15.07;;;;;;;14.80;100.00;94324.84;5073872;28;20198;-78
2021/07/17 05:20:15;;;;;;;43.55;16.30;;;;;;;14.77;100.00;94333.97;5073977;28;20223;-79
2021/07/17 05:22:43;;;;;;;46.70;16.35;;;;;;;14.89;100.00;94333.25;5073748;28;20195;-81
2021/07/17 05:25:10;;;;;;;41.15;16.23;;;;;;;14.87;100.00;94325.63;5073660;28;20202;-81
2021/07/17 05:27:36;;;;;;;41.75;16.13;;;;;;;14.94;100.00;94325.56;5073597;28;20227;-80
2021/07/17 05:30:04;;;;;;;37.13;15.05;;;;;;;14.97;100.00;94330.38;5073606;28;20223;-82
2021/07/17 05:32:30;;;;;;;39.20;15.75;;;;;;;14.89;100.00;94330.63;5073505;28;20649;-80
2021/07/17 05:34:57;;;;;;;42.58;15.82;;;;;;;14.91;100.00;94331.25;5073469;28;20199;-80
2021/07/17 05:37:25;;;;;;;36.38;14.77;;;;;;;14.82;100.00;94337.75;5073337;28;20210;-80
2021/07/17 05:39:53;;;;;;;37.38;15.00;;;;;;;14.87;100.00;94344.00;5073600;28;20207;-81
2021/07/17 05:42:20;;;;;;;43.40;16.67;;;;;;;14.73;100.00;94343.28;5073278;28;20661;-80
2021/07/17 05:44:47;;;;;;;46.80;16.67;;;;;;;14.68;100.00;94340.47;5073559;28;20203;-79
2021/07/17 05:47:13;;;;;;;43.10;18.02;;;;;;;14.66;100.00;94345.16;5073416;28;20563;-79
2021/07/17 05:49:40;;;;;;;40.53;16.58;;;;;;;14.64;100.00;94349.81;5073251;28;20260;-81
2021/07/17 05:52:07;;;;;;;44.47;16.60;;;;;;;14.66;100.00;94342.53;5073196;28;20194;-80
2021/07/17 05:54:33;;;;;;;48.30;17.33;;;;;;;14.68;100.00;94343.09;5073008;28;20588;-79
2021/07/17 05:57:01;;;;;;;52.72;18.90;;;;;;;14.67;100.00;94346.78;5073343;28;20206;-81
2021/07/17 05:59:28;;;;;;;53.45;19.17;;;;;;;14.73;100.00;94345.91;5073329;28;20202;-80
2021/07/17 06:01:54;;;;;;;59.45;19.30;;;;;;;14.63;100.00;94356.06;5073113;28;20203;-79
2021/07/17 06:04:20;;;;;;;49.22;17.65;;;;;;;14.68;100.00;94353.63;5073249;28;20195;-80
2021/07/17 06:06:47;;;;;;;53.05;19.50;;;;;;;14.59;100.00;94349.66;5073206;28;20202;-77
2021/07/17 06:09:14;;;;;;;49.95;17.48;;;;;;;14.59;100.00;94349.66;5072910;28;20762;-79
2021/07/17 06:11:40;;;;;;;56.00;18.73;;;;;;;14.64;100.00;94352.44;5072304;28;20247;-79
2021/07/17 06:14:08;;;;;;;52.75;18.13;;;;;;;14.67;100.00;94352.03;5073152;28;20248;-79
2021/07/17 06:16:34;;;;;;;51.72;20.17;;;;;;;14.70;100.00;94348.94;5072961;28;20205;-79
2021/07/17 06:19:01;;;;;;;52.38;18.63;;;;;;;14.73;100.00;94353.00;5072766;28;20256;-80
2021/07/17 06:21:27;;;;;;;61.67;19.58;;;;;;;14.73;100.00;94353.78;5073129;28;20206;-79
2021/07/17 06:23:54;;;;;;;61.25;19.80;;;;;;;14.77;100.00;94357.63;5072862;28;20195;-78
2021/07/17 06:26:20;;;;;;;49.92;17.35;;;;;;;14.73;100.00;94353.78;5072904;28;20230;-78
2021/07/17 06:28:46;;;;;;;64.38;20.40;;;;;;;14.64;100.00;94362.13;5072914;28;20202;-78
2021/07/17 06:31:15;;;;;;;68.40;19.77;;;;;;;14.64;100.00;94362.97;5072782;28;20810;-77
2021/07/17 06:33:41;;;;;;;56.60;19.70;;;;;;;14.78;100.00;94359.22;5072828;28;20206;-79
2021/07/17 06:36:08;;;;;;;56.88;19.38;;;;;;;14.82;100.00;94358.78;5072843;28;20271;-77
2021/07/17 06:38:35;;;;;;;68.72;18.38;;;;;;;14.77;100.00;94354.16;5072748;28;20290;-77
2021/07/17 06:41:02;;;;;;;56.63;18.95;;;;;;;14.91;100.00;94362.78;5072676;28;20253;-77
2021/07/17 06:43:29;;;;;;;54.28;17.70;;;;;;;14.80;100.00;94359.00;5072703;28;20199;-78
2021/07/17 06:45:55;;;;;;;72.57;19.52;;;;;;;14.99;100.00;94357.28;5072837;28;20198;-79
2021/07/17 06:48:23;;;;;;;52.22;17.45;;;;;;;14.96;100.00;94366.38;5072445;28;20199;-80
2021/07/17 06:50:50;;;;;;;41.70;16.63;;;;;;;14.95;100.00;94363.97;5072764;28;20230;-79
2021/07/17 06:53:17;;;;;;;49.35;18.70;;;;;;;14.87;100.00;94361.59;5072610;28;20232;-78
2021/07/17 06:55:43;;;;;;;55.42;18.63;;;;;;;14.98;100.00;94366.19;5072769;28;20211;-77
2021/07/17 06:58:10;;;;;;;48.05;17.85;;;;;;;14.97;100.00;94372.44;5072548;28;20565;-79
2021/07/17 07:00:36;;;;;;;49.88;19.13;;;;;;;15.02;100.00;94380.53;5072280;28;20256;-79
2021/07/17 07:03:04;;;;;;;43.47;16.73;;;;;;;14.88;100.00;94379.00;5072837;28;20207;-79
2021/07/17 07:05:32;;;;;;;45.55;16.58;;;;;;;14.87;100.00;94375.56;5072595;28;20272;-80
2021/07/17 07:07:58;;;;;;;44.08;17.20;;;;;;;14.80;100.00;94375.59;5072755;28;20199;-80
2021/07/17 07:10:25;;;;;;;46.40;18.73;;;;;;;14.80;100.00;94382.66;5072493;28;20292;-80
2021/07/17 07:12:52;;;;;;;45.33;16.15;;;;;;;14.83;100.00;94387.50;5072446;28;20198;-77
2021/07/17 07:15:18;;;;;;;52.03;18.13;;;;;;;14.80;100.00;94382.66;5072329;28;20206;-79
2021/07/17 07:17:45;;;;;;;47.13;17.48;;;;;;;14.86;100.00;94381.03;5072510;28;20271;-79
2021/07/17 07:20:13;;;;;;;60.33;18.60;;;;;;;14.94;100.00;94384.22;5072563;28;20293;-78
2021/07/17 07:22:41;;;;;;;62.83;19.25;;;;;;;15.06;100.00;94389.59;5072390;28;20210;-78
2021/07/17 07:25:09;;;;;;;50.05;19.48;;;;;;;15.07;100.00;94390.38;5074150;28;20434;-78
2021/07/17 07:27:36;;;;;;;50.10;17.15;;;;;;;15.08;100.00;94390.19;5075773;28;20693;-79
2021/07/17 07:30:04;;;;;;;35.72;15.50;;;;;;;15.13;100.00;94397.44;5075699;28;20624;-78
2021/07/17 07:32:30;;;;;;;35.85;14.65;;;;;;;15.17;100.00;94398.59;5076053;28;20205;-78
2021/07/17 07:34:57;;;;;;;42.65;16.23;;;;;;;15.28;100.00;94394.50;5075901;28;20203;-78
2021/07/17 07:37:25;;;;;;;41.45;14.90;;;;;;;15.28;100.00;94402.38;5075867;28;20202;-79
2021/07/17 07:39:54;;;;;;;43.38;14.85;;;;;;;15.25;100.00;94398.34;5076097;28;20195;-78
2021/07/17 07:42:21;;;;;;;44.58;15.63;;;;;;;15.29;100.00;94390.84;5075694;28;20214;-79
2021/07/17 07:44:47;;;;;;;39.10;14.90;;;;;;;15.32;100.00;94398.28;5075902;28;20202;-78
2021/07/17 07:47:13;;;;;;;34.03;14.55;;;;;;;15.33;100.00;94387.56;5075711;28;20226;-78
2021/07/17 07:49:41;;;;;;;32.88;14.10;;;;;;;15.26;100.00;94397.34;5075684;28;20198;-78
2021/07/17 07:52:07;;;;;;;36.65;15.25;;;;;;;15.20;100.00;94392.91;5075542;28;20237;-81
2021/07/17 07:54:34;;;;;;;40.95;15.77;;;;;;;15.18;100.00;94403.66;5075460;28;20206;-80
2021/07/17 07:57:02;;;;;;;40.80;15.40;;;;;;;15.24;100.00;94401.19;5072072;28;20199;-82
2021/07/17 07:59:29;;;;;;;37.72;15.98;;;;;;;15.28;100.00;94395.28;5070374;28;20207;-78
2021/07/17 08:01:55;;;;;;;37.65;15.35;;;;;;;15.31;100.00;94401.97;5075217;28;20198;-80
2021/07/17 08:04:22;;;;;;;45.15;16.15;;;;;;;15.24;100.00;94398.56;5075161;28;20709;-79
2021/07/17 08:06:50;;;;;;;35.53;16.52;;;;;;;15.38;100.00;94394.81;5074593;28;20205;-80
2021/07/17 08:09:24;;;;;;;41.22;15.48;;;;;;;15.48;100.00;94395.13;5075107;28;20198;-81
2021/07/17 08:11:51;;;;;;;33.55;14.60;;;;;;;15.40;100.00;94408.56;5075516;28;20289;-82
2021/07/17 08:14:23;;;;;;;37.40;16.02;;;;;;;15.41;100.00;94404.91;5075090;28;20218;-80
2021/07/17 08:16:53;;;;;;;70.13;17.15;;;;;;;15.39;100.00;94404.34;5075142;28;20194;-80
2021/07/17 08:19:19;;;;;;;51.70;18.27;;;;;;;15.40;100.00;94408.56;5074888;28;20252;-81
2021/07/17 08:21:46;;;;;;;157.85;20.55;;;;;;;15.24;100.00;94401.19;5077072;28;20226;-81
2021/07/17 08:24:12;;;;;;;94.05;19.27;;;;;;;15.21;100.00;94404.28;5074628;28;20210;-81
2021/07/17 08:26:40;;;;;;;66.95;19.90;;;;;;;15.42;100.00;94403.06;5074819;28;20222;-80
2021/07/17 08:29:07;;;;;;;128.88;19.25;;;;;;;15.32;100.00;94399.13;5074768;28;20195;-79
2021/07/17 08:31:37;;;;;;;135.18;21.88;;;;;;;15.38;100.00;94405.34;5074837;28;20227;-82
2021/07/17 08:34:09;;;;;;;50.63;18.38;;;;;;;15.45;100.00;94390.28;5083709;28;20210;-80
2021/07/17 08:36:35;;;;;;;79.88;19.77;;;;;;;15.61;100.00;94401.31;5074500;28;20234;-80
2021/07/17 08:39:02;;;;;;;78.70;19.23;;;;;;;15.59;100.00;94404.16;5074721;28;20260;-81
2021/07/17 08:41:33;;;;;;;74.75;18.92;;;;;;;15.54;100.00;94417.97;5074563;28;20201;-78
2021/07/17 08:44:02;;;;;;;73.05;19.65;;;;;;;15.56;100.00;94396.69;5074511;28;20222;-78
2021/07/17 08:46:30;;;;;;;62.88;17.67;;;;;;;15.44;100.00;94409.75;5075272;28;20205;-84
2021/07/17 08:48:59;;;;;;;52.60;18.63;;;;;;;15.39;100.00;94411.41;5074257;28;20206;-80
2021/07/17 08:51:25;;;;;;;54.08;20.20;;;;;;;15.35;100.00;94421.56;5074286;28;20582;-80
2021/07/17 08:53:56;;;;;;;52.45;20.23;;;;;;;15.39;100.00;94411.41;5074453;28;20206;-80
2021/07/17 08:56:24;;;;;;;50.78;20.52;;;;;;;15.23;100.00;94418.81;5074338;28;20226;-78
2021/07/17 08:58:51;;;;;;;66.65;21.33;;;;;;;15.25;100.00;94418.59;5074229;28;20213;-79
2021/07/17 09:01:18;;;;;;;53.70;20.45;;;;;;;15.25;100.00;94415.97;5074192;28;20195;-79
2021/07/17 09:03:44;;;;;;;46.88;18.90;;;;;;;15.21;100.00;94415.59;5073957;28;20252;-79
2021/07/17 09:06:12;;;;;;;52.13;20.20;;;;;;;15.31;100.00;94409.84;5074255;28;20214;-78
2021/07/17 09:08:39;;;;;;;44.10;18.23;;;;;;;15.46;100.00;94412.97;5073947;28;20215;-80
2021/07/17 09:11:06;;;;;;;38.60;17.60;;;;;;;15.58;100.00;94404.38;5074007;28;20222;-78
2021/07/17 09:13:34;;;;;;;36.35;16.80;;;;;;;15.80;100.00;94410.88;5074031;28;20206;-80
2021/07/17 09:16:03;;;;;;;33.42;16.17;;;;;;;15.84;100.00;94406.81;5073853;28;20209;-80
2021/07/17 09:18:37;;;;;;;35.83;15.10;;;;;;;15.75;100.00;94415.16;5074210;28;20608;-78
2021/07/17 09:21:10;;;;;;;37.40;15.75;;;;;;;15.57;100.00;94402.75;5074032;28;20213;-79
2021/07/17 09:23:39;;;;;;;38.92;17.20;;;;;;;15.57;100.00;94400.94;5073911;28;20286;-78
2021/07/17 09:26:11;;;;;;;44.08;18.50;;;;;;;15.53;100.00;94410.28;5073488;28;20748;-79
2021/07/17 09:28:37;;;;;;;43.30;18.27;;;;;;;15.37;100.00;94419.53;5073555;28;20203;-79
2021/07/17 09:31:06;;;;;;;44.10;17.75;;;;;;;15.42;100.00;94406.53;5073695;28;20222;-78
2021/07/17 09:33:34;;;;;;;43.97;18.90;;;;;;;15.52;100.00;94417.38;5073381;28;20208;-77
2021/07/17 09:36:01;;;;;;;38.03;18.02;;;;;;;15.46;100.00;94418.22;5073601;28;20205;-79
2021/07/17 09:38:32;;;;;;;44.40;18.30;;;;;;;15.44;100.00;94412.38;5073483;28;20202;-79
2021/07/17 09:41:03;;;;;;;44.20;19.33;;;;;;;15.47;100.00;94413.75;5073481;28;20199;-78
2021/07/17 09:43:35;;;;;;;52.75;18.63;;;;;;;15.56;100.00;94415.13;5073528;28;20206;-77
2021/07/17 09:46:14;;;;;;;37.17;16.02;;;;;;;15.64;100.00;94414.06;5073640;28;20199;-77
2021/07/17 09:48:46;;;;;;;38.38;16.33;;;;;;;15.79;100.00;94414.56;5072921;28;20576;-76
2021/07/17 09:51:18;;;;;;;35.60;15.77;;;;;;;16.02;100.00;94415.72;5073172;28;20681;-78
2021/07/17 09:53:46;;;;;;;34.20;16.10;;;;;;;16.00;100.00;94412.53;5073157;28;20199;-78
2021/07/17 09:56:16;;;;;;;36.00;15.45;;;;;;;16.07;100.00;94415.88;5073127;28;20682;-78
2021/07/17 09:58:43;;;;;;;25.42;12.30;;;;;;;15.97;100.00;94415.59;5073320;28;20202;-77
2021/07/17 10:01:25;;;;;;;28.63;13.63;;;;;;;15.96;100.00;94406.09;5073234;28;20206;-77
2021/07/17 10:03:54;;;;;;;27.58;12.80;;;;;;;16.00;100.00;94407.25;5073710;28;20664;-78
2021/07/17 10:06:31;;;;;;;22.55;12.18;;;;;;;16.04;100.00;94411.06;5072955;28;20722;-77
2021/07/17 10:08:57;;;;;;;21.13;10.57;;;;;;;16.23;100.00;94406.63;5073008;28;20198;-77
2021/07/17 10:11:27;;;;;;;26.42;11.85;;;;;;;16.37;100.00;94407.25;5073101;28;20230;-76
2021/07/17 10:13:54;;;;;;;23.38;10.80;;;;;;;16.51;100.00;94407.94;5073028;28;20201;-77
2021/07/17 10:16:22;;;;;;;24.50;11.25;;;;;;;16.45;100.00;94410.41;5072730;28;20226;-77
2021/07/17 10:18:50;;;;;;;25.33;12.93;;;;;;;16.49;100.00;94400.25;5073006;28;20199;-77
2021/07/17 10:21:17;;;;;;;23.00;12.15;;;;;;;16.59;100.00;94405.78;5072896;28;20681;-76
2021/07/17 10:23:46;;;;;;;27.10;12.63;;;;;;;16.51;100.00;94400.81;5072844;28;20203;-77
2021/07/17 10:26:13;;;;;;;27.30;13.27;;;;;;;16.42;100.00;94397.69;5072722;28;20230;-76
2021/07/17 10:28:41;;;;;;;24.25;12.60;;;;;;;16.50;100.00;94407.09;5072828;28;20206;-77
2021/07/17 10:31:08;;;;;;;23.80;12.07;;;;;;;16.46;100.00;94396.19;5072646;28;20199;-79
2021/07/17 10:33:36;;;;;;;24.10;11.90;;;;;;;16.51;100.00;94402.66;5072953;28;20203;-77
2021/07/17 10:36:08;;;;;;;28.17;14.55;;;;;;;16.54;100.00;94391.66;5072975;28;20207;-77
2021/07/17 10:38:36;;;;;;;26.08;12.88;;;;;;;16.52;100.00;94397.16;5072960;28;20198;-76
2021/07/17 10:41:04;;;;;;;24.40;12.60;;;;;;;16.43;100.00;94396.63;5072803;28;20199;-77
2021/07/17 10:43:32;;;;;;;29.92;13.93;;;;;;;16.52;100.00;94398.97;5072674;28;20201;-76
2021/07/17 10:46:02;;;;;;;32.13;14.55;;;;;;;16.52;100.00;94389.25;5072600;28;20258;-76
2021/07/17 10:48:29;;;;;;;29.85;13.65;;;;;;;16.40;100.00;94388.38;5072806;28;20195;-77
2021/07/17 10:50:59;;;;;;;25.88;13.32;;;;;;;16.19;100.00;94389.66;5072826;28;20203;-76
2021/07/17 10:53:41;;;;;;;28.33;12.98;;;;;;;16.31;100.00;94387.06;5072655;28;20230;-76
2021/07/17 10:56:50;;;;;;;27.52;13.55;;;;;;;16.20;100.00;94388.59;5072516;28;20557;-76
2021/07/17 10:59:41;;;;;;;32.25;15.10;;;;;;;16.03;100.00;94383.13;5048919;28;20607;-76
2021/07/17 11:02:10;;;;;;;31.70;14.63;;;;;;;16.01;100.00;94383.34;5076663;28;20220;-75
2021/07/17 11:04:46;;;;;;;37.80;15.65;;;;;;;16.13;100.00;94380.78;5076384;28;20653;-76
2021/07/17 11:07:43;;;;;;;30.80;14.80;;;;;;;16.08;100.00;94378.00;5076535;28;20260;-76
2021/07/17 11:10:14;;;;;;;29.88;15.50;;;;;;;16.08;100.00;94376.16;5076415;28;20298;-77
2021/07/17 11:13:02;;;;;;;34.60;15.63;;;;;;;16.09;100.00;94377.78;5076214;28;20309;-77